createdAt,value
2019-03-05T00:01:34.631Z,4.28
2019-03-05T00:04:41.670Z,4.50
2019-03-05T00:07:48.602Z,4.43
2019-03-05T00:10:58.613Z,4.18
2019-03-05T00:14:05.563Z,4.25
2019-03-05T00:17:13.518Z,4.37
2019-03-05T00:20:20.455Z,4.21
2019-03-05T00:23:53.803Z,4.41
2019-03-05T00:27:00.778Z,4.32
2019-03-05T00:30:32.778Z,4.40
2019-03-05T00:35:09.626Z,4.37
2019-03-05T00:38:45.107Z,4.29
2019-03-05T00:43:07.653Z,4.46
2019-03-05T00:47:24.734Z,4.41
2019-03-05T00:51:25.417Z,4.34
2019-03-05T00:55:06.315Z,4.23
2019-03-05T00:58:20.843Z,4.17
2019-03-05T01:01:54.194Z,4.34
2019-03-05T01:05:41.927Z,4.41
2019-03-05T01:08:50.324Z,4.23
2019-03-05T01:11:58.322Z,4.23
2019-03-05T01:15:05.453Z,4.05
2019-03-05T01:18:12.356Z,4.31
2019-03-05T01:21:21.633Z,4.35
2019-03-05T01:24:28.697Z,4.41
2019-03-05T01:27:35.663Z,4.44
2019-03-05T01:31:08.179Z,4.57
2019-03-05T01:34:29.031Z,4.57
2019-03-05T01:37:35.957Z,4.59
2019-03-05T01:40:51.150Z,4.73
2019-03-05T01:43:59.030Z,4.76
2019-03-05T01:47:06.091Z,4.75
2019-03-05T01:50:14.662Z,4.80
2019-03-05T01:53:21.627Z,4.82
2019-03-05T01:56:30.559Z,4.78
2019-03-05T01:59:37.376Z,4.84
2019-03-05T02:02:44.478Z,4.80
2019-03-05T02:05:54.461Z,4.77
2019-03-05T02:09:01.358Z,4.73
2019-03-05T02:12:10.090Z,4.72
2019-03-05T02:15:17.184Z,4.73
2019-03-05T02:18:27.066Z,4.73
2019-03-05T02:21:34.034Z,4.72
2019-03-05T02:25:23.745Z,4.65
2019-03-05T02:29:04.939Z,4.54
2019-03-05T02:33:01.524Z,4.56
2019-03-05T02:36:43.851Z,4.65
2019-03-05T02:40:27.335Z,4.53
2019-03-05T02:44:36.640Z,4.55
2019-03-05T02:49:02.543Z,4.55
2019-03-05T02:52:54.955Z,4.61
2019-03-05T02:56:52.947Z,4.46
2019-03-05T03:00:02.447Z,4.40
2019-03-05T03:03:24.046Z,4.37
2019-03-05T03:06:33.605Z,4.40
2019-03-05T03:10:24.898Z,4.41
2019-03-05T03:13:31.852Z,4.54
2019-03-05T03:16:38.738Z,4.54
2019-03-05T03:19:45.703Z,4.48
2019-03-05T03:22:53.059Z,4.56
2019-03-05T03:25:59.979Z,4.47
2019-03-05T03:29:06.873Z,4.34
2019-03-05T03:32:13.854Z,4.38
2019-03-05T03:35:20.950Z,4.44
2019-03-05T03:38:27.911Z,4.41
2019-03-05T03:41:34.837Z,4.44
2019-03-05T03:44:41.782Z,4.39
2019-03-05T03:47:48.694Z,4.34
2019-03-05T03:50:55.836Z,4.32
2019-03-05T03:54:02.791Z,4.31
2019-03-05T03:57:10.022Z,4.37
2019-03-05T04:00:21.569Z,4.29
2019-03-05T04:03:28.496Z,4.27
2019-03-05T04:06:35.529Z,4.20
2019-03-05T04:09:42.399Z,4.23
2019-03-05T04:12:49.474Z,4.15
2019-03-05T04:15:56.363Z,4.19
2019-03-05T04:19:05.023Z,4.18
2019-03-05T04:22:11.970Z,4.20
2019-03-05T04:25:18.971Z,4.14
2019-03-05T04:28:25.841Z,4.16
2019-03-05T04:31:34.033Z,4.14
2019-03-05T04:34:41.003Z,4.06
2019-03-05T04:37:48.401Z,4.11
2019-03-05T04:40:55.512Z,4.15
2019-03-05T04:44:02.444Z,4.15
2019-03-05T04:47:09.380Z,4.14
2019-03-05T04:50:27.555Z,4.09
2019-03-05T04:53:34.547Z,4.27
2019-03-05T04:56:41.506Z,4.12
2019-03-05T04:59:49.616Z,4.20
2019-03-05T05:02:58.463Z,4.20
2019-03-05T05:06:05.517Z,4.12
2019-03-05T05:09:13.106Z,4.13
2019-03-05T05:12:19.918Z,4.07
2019-03-05T05:15:32.662Z,4.13
2019-03-05T05:18:39.574Z,4.13
2019-03-05T05:21:46.423Z,4.06
2019-03-05T05:24:55.930Z,4.09
2019-03-05T05:28:02.841Z,4.03
2019-03-05T05:31:09.758Z,4.03
2019-03-05T05:34:16.693Z,3.87
2019-03-05T05:37:23.649Z,3.90
2019-03-05T05:40:33.488Z,4.00
2019-03-05T05:43:40.366Z,3.90
2019-03-05T05:46:47.525Z,3.96
2019-03-05T05:49:54.611Z,3.84
2019-03-05T05:53:01.492Z,3.99
2019-03-05T05:56:08.335Z,3.84
2019-03-05T05:59:15.304Z,4.03
2019-03-05T06:02:22.596Z,3.97
2019-03-05T06:05:29.502Z,4.05
2019-03-05T06:08:36.284Z,4.02
2019-03-05T06:11:43.178Z,4.12
2019-03-05T06:14:50.056Z,4.18
2019-03-05T06:17:57.152Z,4.27
2019-03-05T06:21:04.212Z,4.24
2019-03-05T06:24:11.045Z,4.22
2019-03-05T06:27:17.988Z,4.31
2019-03-05T06:30:25.030Z,4.32
2019-03-05T06:33:31.918Z,4.38
2019-03-05T06:36:57.030Z,4.41
2019-03-05T06:40:04.038Z,4.44
2019-03-05T06:43:12.068Z,4.36
2019-03-05T06:46:18.922Z,4.39
2019-03-05T06:49:25.851Z,4.46
2019-03-05T06:52:32.793Z,4.51
2019-03-05T06:55:39.629Z,4.47
2019-03-05T06:58:46.865Z,4.44
2019-03-05T07:01:57.124Z,4.36
2019-03-05T07:05:05.566Z,4.13
2019-03-05T07:08:12.438Z,4.00
2019-03-05T07:12:10.120Z,3.76
2019-03-05T07:16:11.638Z,3.69
2019-03-05T07:19:33.642Z,3.56
2019-03-05T07:23:32.791Z,3.70
2019-03-05T07:26:39.665Z,3.72
2019-03-05T07:29:47.566Z,3.84
2019-03-05T07:32:57.526Z,3.90
2019-03-05T07:36:04.662Z,3.90
2019-03-05T07:39:15.157Z,3.97
2019-03-05T07:42:22.041Z,3.99
2019-03-05T07:45:28.954Z,3.97
2019-03-05T07:48:35.983Z,4.17
2019-03-05T07:51:43.089Z,4.24
2019-03-05T07:54:52.479Z,4.31
2019-03-05T07:57:59.611Z,4.33
2019-03-05T08:01:07.007Z,4.55
2019-03-05T08:04:14.258Z,4.70
2019-03-05T08:07:22.294Z,4.78
2019-03-05T08:10:32.469Z,4.85
2019-03-05T08:14:43.062Z,4.87
2019-03-05T08:17:49.904Z,4.94
2019-03-05T08:20:58.021Z,5.05
2019-03-05T08:24:04.888Z,5.12
2019-03-05T08:27:12.111Z,5.15
2019-03-05T08:30:19.279Z,5.22
2019-03-05T08:33:26.168Z,5.24
2019-03-05T08:36:33.114Z,5.35
2019-03-05T08:39:40.056Z,5.45
2019-03-05T08:42:47.074Z,5.49
2019-03-05T08:45:54.550Z,5.49
2019-03-05T08:49:01.485Z,5.60
2019-03-05T08:52:08.480Z,5.64
2019-03-05T08:55:15.437Z,5.70
2019-03-05T08:58:22.388Z,5.62
2019-03-05T09:01:29.433Z,5.65
2019-03-05T09:04:37.451Z,5.73
2019-03-05T09:07:46.760Z,5.78
2019-03-05T09:10:54.496Z,6.14
2019-03-05T09:14:01.359Z,6.15
2019-03-05T09:17:08.342Z,5.97
2019-03-05T09:20:17.049Z,5.99
2019-03-05T09:23:23.975Z,6.02
2019-03-05T09:26:31.049Z,6.03
2019-03-05T09:29:38.306Z,6.05
2019-03-05T09:32:45.125Z,6.29
2019-03-05T09:35:56.142Z,6.40
2019-03-05T09:39:03.749Z,6.20
2019-03-05T09:42:12.387Z,6.20
2019-03-05T09:45:19.716Z,6.26
2019-03-05T09:48:26.736Z,6.33
2019-03-05T09:51:33.830Z,6.50
2019-03-05T09:54:40.893Z,6.32
2019-03-05T09:57:53.627Z,6.44
2019-03-05T10:01:00.528Z,6.51
2019-03-05T10:04:07.385Z,6.55
2019-03-05T10:07:18.889Z,6.61
2019-03-05T10:10:25.411Z,6.59
2019-03-05T10:13:32.267Z,6.44
2019-03-05T10:16:39.235Z,6.45
2019-03-05T10:19:46.329Z,6.49
2019-03-05T10:22:53.488Z,6.49
2019-03-05T10:26:00.496Z,6.58
2019-03-05T10:29:08.959Z,6.58
2019-03-05T10:32:17.017Z,6.72
2019-03-05T10:35:26.529Z,6.72
2019-03-05T10:38:33.451Z,6.80
2019-03-05T10:41:42.859Z,6.61
2019-03-05T10:44:49.117Z,6.57
2019-03-05T10:47:58.994Z,6.59
2019-03-05T10:51:06.059Z,6.69
2019-03-05T10:54:13.062Z,6.60
2019-03-05T10:57:20.137Z,6.57
2019-03-05T11:00:31.105Z,6.58
2019-03-05T11:03:38.141Z,6.58
2019-03-05T11:06:45.124Z,6.58
2019-03-05T11:09:55.215Z,6.54
2019-03-05T11:13:03.539Z,6.56
2019-03-05T11:16:10.457Z,6.56
2019-03-05T11:19:17.318Z,6.54
2019-03-05T11:22:24.208Z,6.53
2019-03-05T11:25:31.078Z,6.59
2019-03-05T11:28:37.917Z,6.58
2019-03-05T11:31:44.949Z,6.54
2019-03-05T11:34:53.454Z,6.14
2019-03-05T11:38:00.390Z,5.86
2019-03-05T11:41:07.382Z,5.82
2019-03-05T11:44:14.327Z,5.95
2019-03-05T11:47:21.230Z,5.93
2019-03-05T11:50:28.300Z,5.88
2019-03-05T11:53:35.308Z,5.76
2019-03-05T11:56:42.326Z,5.78
2019-03-05T11:59:49.305Z,5.76
2019-03-05T12:02:57.853Z,5.65
2019-03-05T12:06:04.878Z,5.51
2019-03-05T12:09:11.764Z,5.62
2019-03-05T12:12:18.687Z,5.58
2019-03-05T12:15:26.133Z,5.57
2019-03-05T12:18:32.965Z,5.38
2019-03-05T12:21:39.911Z,5.35
2019-03-05T12:24:47.026Z,5.25
2019-03-05T12:27:56.735Z,5.19
2019-03-05T12:31:03.862Z,5.08
2019-03-05T12:34:11.026Z,4.93
2019-03-05T12:37:18.253Z,4.99
2019-03-05T12:40:25.272Z,4.82
2019-03-05T12:43:32.261Z,4.99
2019-03-05T12:46:39.162Z,5.06
2019-03-05T12:49:46.229Z,5.12
2019-03-05T12:52:53.940Z,5.17
2019-03-05T12:56:01.155Z,5.23
2019-03-05T12:59:08.102Z,5.35
2019-03-05T13:02:15.049Z,5.41
2019-03-05T13:05:22.260Z,5.45
2019-03-05T13:08:29.146Z,5.44
2019-03-05T13:11:35.974Z,5.48
2019-03-05T13:14:43.880Z,5.52
2019-03-05T13:17:53.009Z,5.54
2019-03-05T13:21:03.564Z,5.59
2019-03-05T13:24:13.576Z,5.54
2019-03-05T13:27:22.841Z,5.38
2019-03-05T13:30:28.132Z,5.19
2019-03-05T13:33:37.990Z,5.27
2019-03-05T13:36:46.917Z,5.37
2019-03-05T13:39:55.002Z,5.41
2019-03-05T13:43:04.863Z,5.27
2019-03-05T13:46:14.828Z,5.16
2019-03-05T13:49:58.890Z,5.22
2019-03-05T13:54:10.776Z,5.28
2019-03-05T13:58:39.422Z,5.24
2019-03-05T14:01:46.408Z,5.34
2019-03-05T14:05:29.086Z,5.52
2019-03-05T14:09:15.344Z,5.61
2019-03-05T14:12:19.089Z,5.69
2019-03-05T14:15:26.223Z,5.71
2019-03-05T14:18:33.478Z,5.57
2019-03-05T14:21:40.507Z,5.50
2019-03-05T14:24:47.470Z,5.49
2019-03-05T14:27:56.134Z,5.56
2019-03-05T14:31:03.229Z,5.40
2019-03-05T14:34:10.183Z,5.52
2019-03-05T14:37:17.241Z,5.53
2019-03-05T14:40:28.689Z,5.58
2019-03-05T14:43:35.746Z,5.63
2019-03-05T14:46:43.255Z,5.61
2019-03-05T14:49:50.364Z,5.62
2019-03-05T14:52:57.463Z,5.68
2019-03-05T14:56:04.497Z,5.64
2019-03-05T14:59:11.530Z,5.65
2019-03-05T15:02:19.913Z,5.65
2019-03-05T15:05:30.350Z,5.65
2019-03-05T15:08:40.434Z,5.57
2019-03-05T15:11:49.479Z,5.59
2019-03-05T15:14:57.766Z,5.59
2019-03-05T15:18:08.495Z,5.56
2019-03-05T15:21:15.710Z,5.52
2019-03-05T15:24:22.788Z,5.57
2019-03-05T15:27:29.659Z,5.60
2019-03-05T15:30:36.793Z,5.58
2019-03-05T15:33:43.792Z,5.62
2019-03-05T15:36:52.177Z,5.57
2019-03-05T15:39:59.407Z,5.48
2019-03-05T15:43:06.447Z,5.60
2019-03-05T15:46:13.394Z,5.65
2019-03-05T15:49:20.374Z,5.72
2019-03-05T15:52:27.491Z,5.66
2019-03-05T15:55:34.520Z,5.54
2019-03-05T15:58:41.485Z,5.47
2019-03-05T16:01:48.376Z,5.47
2019-03-05T16:04:55.485Z,5.38
2019-03-05T16:08:02.386Z,5.37
2019-03-05T16:11:09.314Z,5.31
2019-03-05T16:14:16.617Z,5.31
2019-03-05T16:17:24.177Z,5.20
2019-03-05T16:20:32.270Z,5.19
2019-03-05T16:23:39.598Z,5.18
2019-03-05T16:26:46.699Z,5.15
2019-03-05T16:29:57.181Z,5.04
2019-03-05T16:33:36.822Z,4.70
2019-03-05T16:37:14.590Z,4.67
2019-03-05T16:40:44.189Z,4.49
2019-03-05T16:43:59.967Z,4.47
2019-03-05T16:47:21.015Z,4.49
2019-03-05T16:50:41.994Z,4.60
2019-03-05T16:54:14.482Z,4.60
2019-03-05T16:57:39.868Z,4.55
2019-03-05T17:01:10.790Z,4.33
2019-03-05T17:04:46.259Z,4.45
2019-03-05T17:08:01.747Z,4.37
2019-03-05T17:11:40.049Z,4.27
2019-03-05T17:14:48.112Z,4.23
2019-03-05T17:17:57.374Z,4.36
2019-03-05T17:21:04.942Z,3.91
2019-03-05T17:24:12.606Z,3.97
2019-03-05T17:27:19.593Z,3.80
2019-03-05T17:30:26.636Z,3.73
2019-03-05T17:33:34.537Z,3.60
2019-03-05T17:36:41.571Z,3.98
2019-03-05T17:39:48.489Z,3.86
2019-03-05T17:42:57.542Z,3.88
2019-03-05T17:46:05.763Z,3.75
2019-03-05T17:49:12.877Z,3.98
2019-03-05T17:52:19.916Z,4.00
2019-03-05T17:55:27.320Z,3.98
2019-03-05T17:58:34.600Z,4.09
2019-03-05T18:01:41.660Z,3.99
2019-03-05T18:04:48.591Z,3.91
2019-03-05T18:07:56.528Z,3.73
2019-03-05T18:11:03.867Z,4.02
2019-03-05T18:14:10.869Z,4.03
2019-03-05T18:17:17.944Z,3.90
2019-03-05T18:20:24.926Z,4.02
2019-03-05T18:23:32.102Z,4.01
2019-03-05T18:26:40.408Z,3.62
2019-03-05T18:29:47.473Z,3.62
2019-03-05T18:32:55.613Z,3.50
2019-03-05T18:36:02.667Z,3.54
2019-03-05T18:39:10.536Z,3.59
2019-03-05T18:42:19.142Z,3.70
2019-03-05T18:45:28.080Z,3.57
2019-03-05T18:48:35.344Z,3.60
2019-03-05T18:51:42.366Z,3.70
2019-03-05T18:54:49.357Z,3.60
2019-03-05T18:57:56.368Z,3.74
2019-03-05T19:01:04.325Z,3.60
2019-03-05T19:04:12.801Z,3.57
2019-03-05T19:07:19.894Z,3.67
2019-03-05T19:10:26.930Z,3.51
2019-03-05T19:13:33.945Z,3.52
2019-03-05T19:16:40.879Z,3.66
2019-03-05T19:19:48.111Z,3.69
2019-03-05T19:22:55.155Z,3.70
2019-03-05T19:26:02.179Z,3.68
2019-03-05T19:29:11.132Z,3.75
2019-03-05T19:32:18.018Z,3.82
2019-03-05T19:35:25.023Z,3.67
2019-03-05T19:38:32.050Z,3.75
2019-03-05T19:41:39.099Z,3.61
2019-03-05T19:44:46.158Z,3.63
2019-03-05T19:47:53.290Z,3.66
2019-03-05T19:51:00.290Z,3.79
2019-03-05T19:54:09.448Z,3.87
2019-03-05T19:57:16.203Z,3.88
2019-03-05T20:00:31.695Z,3.90
2019-03-05T20:03:38.703Z,3.93
2019-03-05T20:06:45.648Z,3.82
2019-03-05T20:09:55.626Z,3.99
2019-03-05T20:13:02.564Z,3.90
2019-03-05T20:16:13.291Z,3.70
2019-03-05T20:19:20.361Z,3.86
2019-03-05T20:22:29.629Z,3.84
2019-03-05T20:25:36.377Z,3.76
2019-03-05T20:28:43.649Z,3.78
2019-03-05T20:31:53.892Z,3.78
2019-03-05T20:35:00.854Z,3.76
2019-03-05T20:38:08.501Z,3.94
2019-03-05T20:41:15.508Z,4.02
2019-03-05T20:44:23.866Z,4.02
2019-03-05T20:47:31.193Z,4.02
2019-03-05T20:50:38.239Z,3.85
2019-03-05T20:53:47.573Z,3.90
2019-03-05T20:56:54.707Z,3.91
2019-03-05T21:00:01.748Z,4.01
2019-03-05T21:03:10.108Z,3.94
2019-03-05T21:06:17.091Z,3.91
2019-03-05T21:09:27.003Z,4.06
2019-03-05T21:12:39.590Z,3.93
2019-03-05T21:15:46.527Z,4.00
2019-03-05T21:18:53.516Z,3.95
2019-03-05T21:22:00.486Z,4.01
2019-03-05T21:25:08.905Z,4.01
2019-03-05T21:28:15.902Z,3.99
2019-03-05T21:31:23.032Z,4.02
2019-03-05T21:34:37.125Z,3.84
2019-03-05T21:37:44.383Z,3.98
2019-03-05T21:40:51.251Z,4.00
2019-03-05T21:43:58.307Z,3.96
2019-03-05T21:47:05.285Z,4.03
2019-03-05T21:50:13.756Z,3.98
2019-03-05T21:53:20.769Z,3.99
2019-03-05T21:56:27.710Z,3.94
2019-03-05T21:59:34.861Z,3.91
2019-03-05T22:02:41.910Z,3.99
2019-03-05T22:05:48.792Z,4.00
2019-03-05T22:08:56.986Z,3.98
2019-03-05T22:12:03.941Z,3.87
2019-03-05T22:15:12.522Z,3.88
2019-03-05T22:18:19.540Z,3.85
2019-03-05T22:21:26.671Z,3.83
2019-03-05T22:24:36.615Z,3.82
2019-03-05T22:27:43.688Z,3.76
2019-03-05T22:30:50.702Z,3.83
2019-03-05T22:34:02.711Z,3.85
2019-03-05T22:37:10.262Z,3.88
2019-03-05T22:40:17.672Z,3.84
2019-03-05T22:43:24.664Z,3.82
2019-03-05T22:46:32.494Z,3.80
2019-03-05T22:49:39.406Z,3.71
2019-03-05T22:52:46.711Z,3.66
2019-03-05T22:55:53.622Z,3.64
2019-03-05T22:59:00.532Z,3.51
2019-03-05T23:02:08.315Z,3.59
2019-03-05T23:05:15.646Z,3.55
2019-03-05T23:08:23.819Z,3.42
2019-03-05T23:11:31.243Z,3.41
2019-03-05T23:14:39.746Z,3.46
2019-03-05T23:17:47.219Z,3.37
2019-03-05T23:20:54.185Z,3.21
2019-03-05T23:24:01.224Z,3.03
2019-03-05T23:27:09.292Z,2.89
2019-03-05T23:30:17.417Z,2.62
2019-03-05T23:33:24.577Z,3.06
2019-03-05T23:36:34.648Z,3.07
2019-03-05T23:39:42.071Z,3.05
2019-03-05T23:42:50.572Z,2.59
2019-03-05T23:45:59.281Z,2.74
2019-03-05T23:49:07.173Z,2.93
2019-03-05T23:52:15.409Z,2.89
2019-03-05T23:55:22.348Z,2.86
2019-03-05T23:58:32.389Z,2.86
